Pelkie, MI (49958)

10:24 AM EDT on May 25, 2015 (GMT -0400)
MQT_Meso | | Change Station
CLOSE
Current Station
Personal Weather Station
Location: Baraga, MI
Elevation: 614 ft
Nearby Weather Stations

Elev 614 ft 46.77 °N, 88.49 °W | Updated 44 minutes ago

Rain
Rain
48 °F
Feels Like 45 °F
N
7
Wind Variable Wind from NE
Gusts 0.0 mph

Today
High -- | Low -- °F
--% Chance of Precip.
Yesterday
High -- | Low -- °F
Precip. -- in
6:09 AM 9:33 PM
Waxing Crescent, 49% visible
Pressure 29.78 in
Visibility 0.2 miles
Clouds
Windchill 45 °F
Dew Point 48 °F
Humidity 100%
Rainfall in
Snow Depth Not available.
UV Not available.
Pollen .90 out of 12
Air Quality Not available.
Flu Activity Sporadic
METAR KCMX 251353Z AUTO 09012G20KT M1/4SM -RA FG VV001 11/09 A2978

More Conditions Fewer Conditions

Pressure 29.78 in
Visibility 0.2 miles
Clouds
Windchill 45 °F
Dew Point 48 °F
Humidity 100%
Rainfall in
Snow Depth Not available.
UV Not available.
Pollen .90 out of 12
Air Quality Not available.
Flu Activity Sporadic
METAR KCMX 251353Z AUTO 09012G20KT M1/4SM -RA FG VV001 11/09 A2978

More Conditions Fewer Conditions

10-Day Weather Forecast

Almanac

Astronomy

May. 25, 2015 Rise Set
Actual Time
Civil Twilight
Nautical Twilight
Astronomical Twilight
Moon
Length of Visible Light
Length of Day
Tomorrow will be .
, % of the Moon is Illuminated

Today's Extremes

State Highs State Lows

Community

WunderPhotos

Upload Photos

1,824,025 photos uploaded!

WunderBlogs® & News

Nearby

Air Quality

  Air Quality AQ Index Pollutant
Not available.

Snow Depth

Station Depth Elevation

Earthquake Activity

City Distance Mag. Time & Date
Minimum magnitude displayed is 2.5.

Coastal Water Temperatures

Place Temperature

Stations

Nearby Weather Stations

Station Location Temp. Windchill Dew Point Humidity Wind Precip. Elev Updated Type